createdAt,value
2017-11-17T00:00:01.914Z,14
2017-11-17T00:05:01.920Z,14
2017-11-17T00:10:01.247Z,14
2017-11-17T00:15:01.639Z,14
2017-11-17T00:20:01.787Z,14
2017-11-17T00:25:02.066Z,14
2017-11-17T00:30:01.899Z,14
2017-11-17T00:35:01.584Z,14
2017-11-17T00:40:01.302Z,14
2017-11-17T00:45:02.016Z,14
2017-11-17T00:50:02.395Z,14
2017-11-17T00:55:02.049Z,14
2017-11-17T01:00:02.013Z,14.1
2017-11-17T01:05:01.191Z,14.1
2017-11-17T01:10:02.296Z,14
2017-11-17T01:15:01.495Z,14
2017-11-17T01:20:01.209Z,14
2017-11-17T01:25:02.472Z,14.1
2017-11-17T01:30:01.177Z,14.2
2017-11-17T01:35:01.431Z,14.2
2017-11-17T01:40:01.302Z,14.2
2017-11-17T01:45:01.754Z,14.2
2017-11-17T01:50:01.448Z,14.2
2017-11-17T01:55:02.176Z,14.2
2017-11-17T02:00:01.208Z,14.3
2017-11-17T02:05:02.464Z,14.3
2017-11-17T02:10:02.139Z,14.3
2017-11-17T02:15:01.423Z,14.3
2017-11-17T02:20:01.693Z,14.3
2017-11-17T02:25:01.773Z,14.3
2017-11-17T02:30:01.960Z,14.6
2017-11-17T02:35:01.778Z,14.6
2017-11-17T02:40:01.947Z,14.6
2017-11-17T02:45:01.214Z,14.7
2017-11-17T02:50:02.014Z,14.7
2017-11-17T02:55:01.845Z,14.8
2017-11-17T03:00:01.697Z,14.8
2017-11-17T03:05:02.102Z,14.9
2017-11-17T03:10:01.813Z,14.9
2017-11-17T03:15:02.246Z,14.9
2017-11-17T03:20:02.167Z,15
2017-11-17T03:25:02.011Z,15
2017-11-17T03:30:01.785Z,15
2017-11-17T03:35:01.758Z,15
2017-11-17T03:40:01.317Z,15
2017-11-17T03:45:01.956Z,15
2017-11-17T03:50:02.225Z,15
2017-11-17T03:55:01.789Z,15
2017-11-17T04:00:01.679Z,15
2017-11-17T04:05:01.373Z,15
2017-11-17T04:10:01.810Z,15
2017-11-17T04:15:01.463Z,15
2017-11-17T04:20:02.084Z,15
2017-11-17T04:25:01.337Z,15
2017-11-17T04:30:01.742Z,15
2017-11-17T04:35:01.750Z,15
2017-11-17T04:40:01.909Z,15
2017-11-17T04:45:02.253Z,15
2017-11-17T04:50:01.150Z,15
2017-11-17T04:55:04.881Z,15
2017-11-17T05:00:01.898Z,15
2017-11-17T05:05:01.747Z,15
2017-11-17T05:10:01.443Z,15
2017-11-17T05:15:01.481Z,15
2017-11-17T05:20:01.851Z,15
2017-11-17T05:25:01.417Z,15.2
2017-11-17T05:30:01.262Z,15.1
2017-11-17T05:35:01.837Z,15.1
2017-11-17T05:40:01.522Z,15.3
2017-11-17T05:45:01.588Z,15.2
2017-11-17T05:50:02.016Z,15.3
2017-11-17T05:55:02.000Z,15.3
2017-11-17T06:00:02.171Z,15.4
2017-11-17T06:05:01.404Z,15.4
2017-11-17T06:10:01.844Z,15.4
2017-11-17T06:15:01.584Z,15.4
2017-11-17T06:20:01.306Z,15.4
2017-11-17T06:25:01.808Z,15.4
2017-11-17T06:30:01.720Z,15.5
2017-11-17T06:35:01.372Z,15.4
2017-11-17T06:40:02.586Z,15.6
2017-11-17T06:45:01.358Z,15.6
2017-11-17T06:50:01.389Z,15.6
2017-11-17T06:55:01.812Z,15.6
2017-11-17T07:00:02.019Z,15.6
2017-11-17T07:05:01.760Z,15.7
2017-11-17T07:10:01.441Z,15.8
2017-11-17T07:15:02.137Z,15.8
2017-11-17T07:20:01.341Z,15.7
2017-11-17T07:25:01.206Z,15.7
2017-11-17T07:30:01.405Z,15.9
2017-11-17T07:35:01.959Z,15.9
2017-11-17T07:40:01.722Z,15.9
2017-11-17T07:45:01.944Z,15.9
2017-11-17T07:50:02.322Z,15.9
2017-11-17T07:55:01.538Z,15.9
2017-11-17T08:00:01.689Z,15.9
2017-11-17T08:05:01.893Z,16
2017-11-17T08:10:01.755Z,16
2017-11-17T08:15:02.128Z,16
2017-11-17T08:20:01.492Z,15.8
2017-11-17T08:25:01.518Z,15.8
2017-11-17T08:30:01.352Z,15.3
2017-11-17T08:35:02.025Z,15.3
2017-11-17T08:40:02.472Z,15.1
2017-11-17T08:45:01.354Z,15
2017-11-17T08:50:01.356Z,15
2017-11-17T08:55:01.889Z,15
2017-11-17T09:00:02.077Z,15
2017-11-17T09:05:02.099Z,15
2017-11-17T09:10:01.984Z,15
2017-11-17T09:15:01.807Z,15
2017-11-17T09:20:02.017Z,14.4
2017-11-17T09:25:01.938Z,14.4
2017-11-17T09:30:01.725Z,14.4
2017-11-17T09:35:02.782Z,14.4
2017-11-17T09:40:01.188Z,14.1
2017-11-17T09:45:01.299Z,14.1
2017-11-17T09:50:01.921Z,14.1
2017-11-17T09:55:02.295Z,14.1
2017-11-17T10:00:01.810Z,14.3
2017-11-17T10:05:01.922Z,14.3
2017-11-17T10:10:01.418Z,14.2
2017-11-17T10:15:02.388Z,14.2
2017-11-17T10:20:02.202Z,14.2
2017-11-17T10:25:02.228Z,14.3
2017-11-17T10:30:01.308Z,14.3
2017-11-17T10:35:01.618Z,14.3
2017-11-17T10:40:01.710Z,14.3
2017-11-17T10:45:01.629Z,14.3
2017-11-17T10:50:02.770Z,14.3
2017-11-17T10:55:01.208Z,14.3
2017-11-17T11:00:01.845Z,14.3
2017-11-17T11:05:01.735Z,14.3
2017-11-17T11:10:01.662Z,14.3
2017-11-17T11:15:01.566Z,14.2
2017-11-17T11:20:02.176Z,14.2
2017-11-17T11:25:01.332Z,14.3
2017-11-17T11:30:02.276Z,14.3
2017-11-17T11:35:01.264Z,14.3
2017-11-17T11:40:01.435Z,14.3
2017-11-17T11:45:01.514Z,14.3
2017-11-17T11:50:01.734Z,14.3
2017-11-17T11:55:02.108Z,14.3
2017-11-17T12:00:01.881Z,14.4
2017-11-17T12:05:01.549Z,14.3
2017-11-17T12:10:01.706Z,14.3
2017-11-17T12:15:01.845Z,14.3
2017-11-17T12:20:02.088Z,14.3
2017-11-17T12:25:01.406Z,14.4
2017-11-17T12:30:01.734Z,14.3
2017-11-17T12:35:01.706Z,14.3
2017-11-17T12:40:01.933Z,14.3
2017-11-17T12:45:01.207Z,14.3
2017-11-17T12:50:01.377Z,14.3
2017-11-17T12:55:01.826Z,14.3
2017-11-17T13:00:01.866Z,14.3
2017-11-17T13:05:01.194Z,14.3
2017-11-17T13:10:02.445Z,14.3
2017-11-17T13:15:01.535Z,14.3
2017-11-17T13:20:01.352Z,14.3
2017-11-17T13:25:01.573Z,14.3
2017-11-17T13:30:01.463Z,14.3
2017-11-17T13:35:01.933Z,14.4
2017-11-17T13:40:01.763Z,14.4
2017-11-17T13:45:01.813Z,14.4
2017-11-17T13:50:01.625Z,14.3
2017-11-17T13:55:01.788Z,14.3
2017-11-17T14:00:02.435Z,14.4
2017-11-17T14:05:01.469Z,14.3
2017-11-17T14:10:02.204Z,14.4
2017-11-17T14:15:02.779Z,14.4
2017-11-17T14:20:01.835Z,14.4
2017-11-17T14:25:01.696Z,14.3
2017-11-17T14:30:02.623Z,14.2
2017-11-17T14:35:01.661Z,14.2
2017-11-17T14:40:01.378Z,14.2
2017-11-17T14:45:01.345Z,14.3
2017-11-17T14:50:01.508Z,14.3
2017-11-17T14:55:01.702Z,14.3
2017-11-17T15:00:02.214Z,14.3
2017-11-17T15:05:02.525Z,14.3
2017-11-17T15:10:01.496Z,14.5
2017-11-17T15:15:01.558Z,14.5
2017-11-17T15:20:02.032Z,14.5
2017-11-17T15:25:01.995Z,14.5
2017-11-17T15:30:01.449Z,14.5
2017-11-17T15:35:01.510Z,14.5
2017-11-17T15:40:02.262Z,14.6
2017-11-17T15:45:01.737Z,14.5
2017-11-17T15:50:02.037Z,14.6
2017-11-17T15:55:02.171Z,14.5
2017-11-17T16:00:02.561Z,14.5
2017-11-17T16:05:01.723Z,14.6
2017-11-17T16:10:01.681Z,14.6
2017-11-17T16:15:01.692Z,14.7
2017-11-17T16:20:01.765Z,14.9
2017-11-17T16:25:01.283Z,14.9
2017-11-17T16:30:01.411Z,14.9
2017-11-17T16:35:02.481Z,15
2017-11-17T16:40:01.250Z,14.9
2017-11-17T16:45:01.332Z,14.9
2017-11-17T16:50:01.376Z,14.9
2017-11-17T16:55:02.446Z,14.9
2017-11-17T17:00:01.378Z,14.9
2017-11-17T17:05:02.144Z,14.9
2017-11-17T17:10:02.053Z,14.8
2017-11-17T17:15:01.835Z,14.8
2017-11-17T17:20:01.712Z,14.8
2017-11-17T17:25:01.973Z,14.8
2017-11-17T17:30:02.505Z,14.8
2017-11-17T17:35:01.739Z,14.8
2017-11-17T17:40:01.609Z,14.9
2017-11-17T17:45:01.509Z,14.9
2017-11-17T17:50:02.240Z,14.7
2017-11-17T17:55:01.319Z,14.6
2017-11-17T18:00:02.183Z,14.6
2017-11-17T18:05:01.953Z,14.7
2017-11-17T18:10:01.822Z,14.7
2017-11-17T18:15:01.331Z,14.7
2017-11-17T18:20:01.439Z,14.8
2017-11-17T18:25:02.321Z,14.8
2017-11-17T18:30:02.151Z,14.6
2017-11-17T18:35:01.570Z,14.6
2017-11-17T18:40:01.433Z,14.6
2017-11-17T18:45:02.042Z,14.6
2017-11-17T18:50:02.053Z,14.7
2017-11-17T18:55:01.373Z,14.7
2017-11-17T19:00:02.089Z,14.7
2017-11-17T19:05:01.396Z,14.8
2017-11-17T19:10:01.942Z,14.8
2017-11-17T19:15:01.454Z,14.8
2017-11-17T19:20:02.259Z,14.8
2017-11-17T19:25:01.856Z,14.9
2017-11-17T19:30:02.229Z,14.9
2017-11-17T19:35:01.307Z,14.9
2017-11-17T19:40:01.954Z,14.9
2017-11-17T19:45:02.202Z,14.9
2017-11-17T19:50:01.413Z,14.9
2017-11-17T19:55:02.307Z,15
2017-11-17T20:00:01.665Z,15
2017-11-17T20:05:01.405Z,15
2017-11-17T20:10:02.664Z,15
2017-11-17T20:15:01.917Z,15
2017-11-17T20:20:01.536Z,15
2017-11-17T20:25:02.516Z,15
2017-11-17T20:30:02.085Z,15
2017-11-17T20:35:02.155Z,15
2017-11-17T20:40:01.709Z,15
2017-11-17T20:45:02.082Z,15
2017-11-17T20:50:01.967Z,15
2017-11-17T20:55:01.698Z,15
2017-11-17T21:00:01.568Z,15
2017-11-17T21:05:02.540Z,15
2017-11-17T21:10:01.534Z,14.9
2017-11-17T21:15:01.885Z,15
2017-11-17T21:20:01.723Z,15
2017-11-17T21:25:02.662Z,15
2017-11-17T21:30:01.776Z,14.9
2017-11-17T21:35:01.992Z,14.9
2017-11-17T21:40:02.570Z,14.9
2017-11-17T21:45:01.522Z,14.8
2017-11-17T21:50:01.397Z,14.9
2017-11-17T21:55:01.527Z,14.9
2017-11-17T22:00:02.399Z,14.9
2017-11-17T22:05:01.957Z,14.9
2017-11-17T22:10:01.800Z,14.9
2017-11-17T22:15:01.548Z,15
2017-11-17T22:20:02.400Z,15
2017-11-17T22:25:02.018Z,14.9
2017-11-17T22:30:01.587Z,15
2017-11-17T22:35:01.454Z,15
2017-11-17T22:40:02.360Z,15
2017-11-17T22:45:01.982Z,15
2017-11-17T22:50:01.559Z,15
2017-11-17T22:55:01.514Z,15
2017-11-17T23:00:02.464Z,15
2017-11-17T23:05:01.863Z,15
2017-11-17T23:10:02.231Z,15
2017-11-17T23:15:02.058Z,15
2017-11-17T23:20:01.624Z,15
2017-11-17T23:25:01.207Z,15
2017-11-17T23:30:01.212Z,15
2017-11-17T23:35:01.680Z,15
2017-11-17T23:40:01.557Z,15
2017-11-17T23:45:01.636Z,15
2017-11-17T23:50:02.881Z,15
2017-11-17T23:55:01.536Z,15
